Kezdőlap
METAR-TAF:

METAR-TAF

Repülőterek :

Watonga, Oklahoma, Amerikai Egyesült Államok

földrajzi szélesség: 35-51-53N, földrajzi hosszúság: 098-25-15W, magasság: 472 m

Jelenlegi meteorológiai megfigyelések

A jelentés 15 perccel ezelõtt készült, 02:15 UTC
Dél-délkeleti szél 7 kt
Hőmérséklet 29°C
Páratartalom 52%
Légköri nyomás 1018 hPa
Látótávolság: 16.1 km
Derült ég

METAR: KJWG 220215Z AUTO 16007KT 10SM CLR 29/18 A3005 RMK AO2 T02920176

Idő: 21:30 (02:30 UTC)


TAF: hiányzik

Meteorológiai megfigyelések és előrejelzések több, mint 4000 repülőtéren (METAR és TAF jelentéseket).

A térképen piros és sárga pontok jelzik az elérhető meteorológiai állomásokat.

Mozgassa az egeret a pont fölött, hogy megjelenjen az állomás neve.

Azután kattintson az időjárási megfigyelések és előrejelzések megtekintéséhez.

A térkép megváltoztatása: kattintson a fekete keresztel jelölt zöld gombra ráközelítéshez, a vonallal jelölt zöld gombra távolításhoz, vagy a zöld nyilakra a szomszédos térképek eléréséhez.


METAR-TAF: